sensor_id;sensor_type;location;lat;lon;timestamp;temperature;humidity
18339;DHT22;9295;44.484;11.240;2024-01-25T00:01:08;4.80;99.90
18339;DHT22;9295;44.484;11.240;2024-01-25T00:03:37;4.80;99.90
18339;DHT22;9295;44.484;11.240;2024-01-25T00:06:06;4.80;99.90
18339;DHT22;9295;44.484;11.240;2024-01-25T00:08:35;4.80;99.90
18339;DHT22;9295;44.484;11.240;2024-01-25T00:11:04;4.70;99.90
18339;DHT22;9295;44.484;11.240;2024-01-25T00:13:34;4.70;99.90
18339;DHT22;9295;44.484;11.240;2024-01-25T00:16:02;4.80;99.90
18339;DHT22;9295;44.484;11.240;2024-01-25T00:18:31;4.80;99.90
18339;DHT22;9295;44.484;11.240;2024-01-25T00:21:00;4.80;99.90
18339;DHT22;9295;44.484;11.240;2024-01-25T00:23:28;4.90;99.90
18339;DHT22;9295;44.484;11.240;2024-01-25T00:25:57;4.90;99.90
18339;DHT22;9295;44.484;11.240;2024-01-25T00:28:27;4.80;99.90
18339;DHT22;9295;44.484;11.240;2024-01-25T00:30:57;4.80;99.90
18339;DHT22;9295;44.484;11.240;2024-01-25T00:33:26;4.80;99.90
18339;DHT22;9295;44.484;11.240;2024-01-25T00:35:55;4.80;99.90
18339;DHT22;9295;44.484;11.240;2024-01-25T00:38:24;4.80;99.90
18339;DHT22;9295;44.484;11.240;2024-01-25T00:40:54;4.80;99.90
18339;DHT22;9295;44.484;11.240;2024-01-25T00:43:23;4.80;99.90
18339;DHT22;9295;44.484;11.240;2024-01-25T00:45:52;4.80;99.90
18339;DHT22;9295;44.484;11.240;2024-01-25T00:48:23;4.80;99.90
18339;DHT22;9295;44.484;11.240;2024-01-25T00:50:52;4.80;99.90
18339;DHT22;9295;44.484;11.240;2024-01-25T00:53:21;4.80;99.90
18339;DHT22;9295;44.484;11.240;2024-01-25T00:55:50;4.80;99.90
18339;DHT22;9295;44.484;11.240;2024-01-25T00:58:19;4.70;99.90
18339;DHT22;9295;44.484;11.240;2024-01-25T01:00:48;4.70;99.90
18339;DHT22;9295;44.484;11.240;2024-01-25T01:03:18;4.70;99.90
18339;DHT22;9295;44.484;11.240;2024-01-25T01:05:49;4.70;99.90
18339;DHT22;9295;44.484;11.240;2024-01-25T01:08:18;4.70;99.90
18339;DHT22;9295;44.484;11.240;2024-01-25T01:10:47;4.60;99.90
18339;DHT22;9295;44.484;11.240;2024-01-25T01:13:15;4.70;99.90
18339;DHT22;9295;44.484;11.240;2024-01-25T01:15:43;4.60;99.90
18339;DHT22;9295;44.484;11.240;2024-01-25T01:18:12;4.60;99.90
18339;DHT22;9295;44.484;11.240;2024-01-25T01:20:41;4.60;99.90
18339;DHT22;9295;44.484;11.240;2024-01-25T01:23:10;4.60;99.90
18339;DHT22;9295;44.484;11.240;2024-01-25T01:25:39;4.60;99.90
18339;DHT22;9295;44.484;11.240;2024-01-25T01:28:07;4.60;99.90
18339;DHT22;9295;44.484;11.240;2024-01-25T01:30:36;4.50;99.90
18339;DHT22;9295;44.484;11.240;2024-01-25T01:33:08;4.50;99.90
18339;DHT22;9295;44.484;11.240;2024-01-25T01:35:37;4.50;99.90
18339;DHT22;9295;44.484;11.240;2024-01-25T01:38:06;4.50;99.90
18339;DHT22;9295;44.484;11.240;2024-01-25T01:40:36;4.50;99.90
18339;DHT22;9295;44.484;11.240;2024-01-25T01:43:04;4.40;99.90
18339;DHT22;9295;44.484;11.240;2024-01-25T01:45:33;4.40;99.90
18339;DHT22;9295;44.484;11.240;2024-01-25T01:48:01;4.40;99.90
18339;DHT22;9295;44.484;11.240;2024-01-25T01:50:30;4.40;99.90
18339;DHT22;9295;44.484;11.240;2024-01-25T01:52:59;4.40;99.90
18339;DHT22;9295;44.484;11.240;2024-01-25T01:55:27;4.40;99.90
18339;DHT22;9295;44.484;11.240;2024-01-25T01:57:58;4.40;99.90
18339;DHT22;9295;44.484;11.240;2024-01-25T02:00:30;4.40;99.90
18339;DHT22;9295;44.484;11.240;2024-01-25T02:02:59;4.40;99.90
18339;DHT22;9295;44.484;11.240;2024-01-25T02:05:28;4.40;99.90
18339;DHT22;9295;44.484;11.240;2024-01-25T02:07:57;4.40;99.90
18339;DHT22;9295;44.484;11.240;2024-01-25T02:10:25;4.40;99.90
18339;DHT22;9295;44.484;11.240;2024-01-25T02:12:54;4.40;99.90
18339;DHT22;9295;44.484;11.240;2024-01-25T02:15:24;4.40;99.90
18339;DHT22;9295;44.484;11.240;2024-01-25T02:17:52;4.40;99.90
18339;DHT22;9295;44.484;11.240;2024-01-25T02:20:21;4.40;99.90
18339;DHT22;9295;44.484;11.240;2024-01-25T02:22:51;4.40;99.90
18339;DHT22;9295;44.484;11.240;2024-01-25T02:25:20;4.40;99.90
18339;DHT22;9295;44.484;11.240;2024-01-25T02:27:49;4.30;99.90
18339;DHT22;9295;44.484;11.240;2024-01-25T02:30:18;4.30;99.90
18339;DHT22;9295;44.484;11.240;2024-01-25T02:32:46;4.30;99.90
18339;DHT22;9295;44.484;11.240;2024-01-25T02:35:16;4.30;99.90
18339;DHT22;9295;44.484;11.240;2024-01-25T02:37:44;4.30;99.90
18339;DHT22;9295;44.484;11.240;2024-01-25T02:40:14;4.30;99.90
18339;DHT22;9295;44.484;11.240;2024-01-25T02:42:43;4.40;99.90
18339;DHT22;9295;44.484;11.240;2024-01-25T02:45:12;4.40;99.90
18339;DHT22;9295;44.484;11.240;2024-01-25T02:47:40;4.30;99.90
18339;DHT22;9295;44.484;11.240;2024-01-25T02:50:09;4.40;99.90
18339;DHT22;9295;44.484;11.240;2024-01-25T02:52:38;4.40;99.90
18339;DHT22;9295;44.484;11.240;2024-01-25T02:55:07;4.40;99.90
18339;DHT22;9295;44.484;11.240;2024-01-25T02:57:37;4.40;99.90
18339;DHT22;9295;44.484;11.240;2024-01-25T03:00:07;4.40;99.90
18339;DHT22;9295;44.484;11.240;2024-01-25T03:02:36;4.30;99.90
18339;DHT22;9295;44.484;11.240;2024-01-25T03:05:04;4.30;99.90
18339;DHT22;9295;44.484;11.240;2024-01-25T03:07:33;4.30;99.90
18339;DHT22;9295;44.484;11.240;2024-01-25T03:10:02;4.30;99.90
18339;DHT22;9295;44.484;11.240;2024-01-25T03:12:31;4.30;99.90
18339;DHT22;9295;44.484;11.240;2024-01-25T03:15:01;4.30;99.90
18339;DHT22;9295;44.484;11.240;2024-01-25T03:17:33;4.20;99.90
18339;DHT22;9295;44.484;11.240;2024-01-25T03:20:01;4.20;99.90
18339;DHT22;9295;44.484;11.240;2024-01-25T03:22:30;4.20;99.90
18339;DHT22;9295;44.484;11.240;2024-01-25T03:24:58;4.20;99.90
18339;DHT22;9295;44.484;11.240;2024-01-25T03:27:27;4.10;99.90
18339;DHT22;9295;44.484;11.240;2024-01-25T03:29:55;4.20;99.90
18339;DHT22;9295;44.484;11.240;2024-01-25T03:32:25;4.20;99.90
18339;DHT22;9295;44.484;11.240;2024-01-25T03:34:56;4.20;99.90
18339;DHT22;9295;44.484;11.240;2024-01-25T03:37:24;4.20;99.90
18339;DHT22;9295;44.484;11.240;2024-01-25T03:39:53;4.20;99.90
18339;DHT22;9295;44.484;11.240;2024-01-25T03:42:21;4.20;99.90
18339;DHT22;9295;44.484;11.240;2024-01-25T03:44:50;4.20;99.90
18339;DHT22;9295;44.484;11.240;2024-01-25T03:47:18;4.20;99.90
18339;DHT22;9295;44.484;11.240;2024-01-25T03:49:48;4.10;99.90
18339;DHT22;9295;44.484;11.240;2024-01-25T03:52:17;4.10;99.90
18339;DHT22;9295;44.484;11.240;2024-01-25T03:54:45;4.10;99.90
18339;DHT22;9295;44.484;11.240;2024-01-25T03:57:14;4.00;99.90
18339;DHT22;9295;44.484;11.240;2024-01-25T03:59:42;4.00;99.90
18339;DHT22;9295;44.484;11.240;2024-01-25T04:02:11;4.00;99.90
18339;DHT22;9295;44.484;11.240;2024-01-25T04:04:39;4.00;99.90
18339;DHT22;9295;44.484;11.240;2024-01-25T04:07:09;3.90;99.90
18339;DHT22;9295;44.484;11.240;2024-01-25T04:09:38;3.90;99.90
18339;DHT22;9295;44.484;11.240;2024-01-25T04:12:07;4.00;99.90
18339;DHT22;9295;44.484;11.240;2024-01-25T04:14:36;4.00;99.90
18339;DHT22;9295;44.484;11.240;2024-01-25T04:17:04;4.00;99.90
18339;DHT22;9295;44.484;11.240;2024-01-25T04:19:32;4.00;99.90
18339;DHT22;9295;44.484;11.240;2024-01-25T04:22:01;3.90;99.90
18339;DHT22;9295;44.484;11.240;2024-01-25T04:24:31;3.90;99.90
18339;DHT22;9295;44.484;11.240;2024-01-25T04:27:00;3.90;99.90
18339;DHT22;9295;44.484;11.240;2024-01-25T04:29:28;3.80;99.90
18339;DHT22;9295;44.484;11.240;2024-01-25T04:31:57;3.80;99.90
18339;DHT22;9295;44.484;11.240;2024-01-25T04:34:25;3.80;99.90
18339;DHT22;9295;44.484;11.240;2024-01-25T04:36:54;3.80;99.90
18339;DHT22;9295;44.484;11.240;2024-01-25T04:39:23;3.80;99.90
18339;DHT22;9295;44.484;11.240;2024-01-25T04:41:53;3.80;99.90
18339;DHT22;9295;44.484;11.240;2024-01-25T04:44:21;3.70;99.90
18339;DHT22;9295;44.484;11.240;2024-01-25T04:46:50;3.70;99.90
18339;DHT22;9295;44.484;11.240;2024-01-25T04:49:19;3.70;99.90
18339;DHT22;9295;44.484;11.240;2024-01-25T04:51:48;3.70;99.90
18339;DHT22;9295;44.484;11.240;2024-01-25T04:54:17;3.70;99.90
18339;DHT22;9295;44.484;11.240;2024-01-25T04:56:45;3.60;99.90
18339;DHT22;9295;44.484;11.240;2024-01-25T04:59:15;3.60;99.90
18339;DHT22;9295;44.484;11.240;2024-01-25T05:01:43;3.60;99.90
18339;DHT22;9295;44.484;11.240;2024-01-25T05:04:12;3.60;99.90
18339;DHT22;9295;44.484;11.240;2024-01-25T05:06:41;3.60;99.90
18339;DHT22;9295;44.484;11.240;2024-01-25T05:09:09;3.60;99.90
18339;DHT22;9295;44.484;11.240;2024-01-25T05:11:38;3.70;99.90
18339;DHT22;9295;44.484;11.240;2024-01-25T05:14:07;3.70;99.90
18339;DHT22;9295;44.484;11.240;2024-01-25T05:16:37;3.70;99.90
18339;DHT22;9295;44.484;11.240;2024-01-25T05:19:05;3.70;99.90
18339;DHT22;9295;44.484;11.240;2024-01-25T05:21:34;3.60;99.90
18339;DHT22;9295;44.484;11.240;2024-01-25T05:24:03;3.60;99.90
18339;DHT22;9295;44.484;11.240;2024-01-25T05:26:32;3.60;99.90
18339;DHT22;9295;44.484;11.240;2024-01-25T05:29:00;3.50;99.90
18339;DHT22;9295;44.484;11.240;2024-01-25T05:31:29;3.50;99.90
18339;DHT22;9295;44.484;11.240;2024-01-25T05:33:59;3.50;99.90
18339;DHT22;9295;44.484;11.240;2024-01-25T05:36:28;3.50;99.90
18339;DHT22;9295;44.484;11.240;2024-01-25T05:38:56;3.40;99.90
18339;DHT22;9295;44.484;11.240;2024-01-25T05:41:25;3.40;99.90
18339;DHT22;9295;44.484;11.240;2024-01-25T05:43:53;3.40;99.90
18339;DHT22;9295;44.484;11.240;2024-01-25T05:46:22;3.40;99.90
18339;DHT22;9295;44.484;11.240;2024-01-25T05:48:50;3.40;99.90
18339;DHT22;9295;44.484;11.240;2024-01-25T05:51:20;3.40;99.90
18339;DHT22;9295;44.484;11.240;2024-01-25T05:53:49;3.30;99.90
18339;DHT22;9295;44.484;11.240;2024-01-25T05:56:17;3.30;99.90
18339;DHT22;9295;44.484;11.240;2024-01-25T05:58:46;3.40;99.90
18339;DHT22;9295;44.484;11.240;2024-01-25T06:01:14;3.30;99.90
18339;DHT22;9295;44.484;11.240;2024-01-25T06:03:43;3.30;99.90
18339;DHT22;9295;44.484;11.240;2024-01-25T06:06:11;3.20;99.90
18339;DHT22;9295;44.484;11.240;2024-01-25T06:08:41;3.30;99.90
18339;DHT22;9295;44.484;11.240;2024-01-25T06:11:20;3.20;99.90
18339;DHT22;9295;44.484;11.240;2024-01-25T06:13:49;3.20;99.90
18339;DHT22;9295;44.484;11.240;2024-01-25T06:16:17;3.30;99.90
18339;DHT22;9295;44.484;11.240;2024-01-25T06:18:46;3.20;99.90
18339;DHT22;9295;44.484;11.240;2024-01-25T06:21:15;3.20;99.90
18339;DHT22;9295;44.484;11.240;2024-01-25T06:23:45;3.20;99.90
18339;DHT22;9295;44.484;11.240;2024-01-25T06:26:13;3.20;99.90
18339;DHT22;9295;44.484;11.240;2024-01-25T06:28:42;3.20;99.90
18339;DHT22;9295;44.484;11.240;2024-01-25T06:31:10;3.20;99.90
18339;DHT22;9295;44.484;11.240;2024-01-25T06:33:39;3.30;99.90
18339;DHT22;9295;44.484;11.240;2024-01-25T06:36:08;3.30;99.90
18339;DHT22;9295;44.484;11.240;2024-01-25T06:38:37;3.30;99.90
18339;DHT22;9295;44.484;11.240;2024-01-25T06:41:07;3.30;99.90
18339;DHT22;9295;44.484;11.240;2024-01-25T06:43:36;3.30;99.90
18339;DHT22;9295;44.484;11.240;2024-01-25T06:46:05;3.30;99.90
18339;DHT22;9295;44.484;11.240;2024-01-25T06:48:34;3.30;99.90
18339;DHT22;9295;44.484;11.240;2024-01-25T06:51:03;3.30;99.90
18339;DHT22;9295;44.484;11.240;2024-01-25T06:53:32;3.30;99.90
18339;DHT22;9295;44.484;11.240;2024-01-25T06:56:00;3.30;99.90
18339;DHT22;9295;44.484;11.240;2024-01-25T06:58:30;3.20;99.90
18339;DHT22;9295;44.484;11.240;2024-01-25T07:00:59;3.30;99.90
18339;DHT22;9295;44.484;11.240;2024-01-25T07:03:29;3.30;99.90
18339;DHT22;9295;44.484;11.240;2024-01-25T07:05:58;3.40;99.90
18339;DHT22;9295;44.484;11.240;2024-01-25T07:08:27;3.50;99.90
18339;DHT22;9295;44.484;11.240;2024-01-25T07:10:55;3.50;99.90
18339;DHT22;9295;44.484;11.240;2024-01-25T07:13:26;3.60;99.90
18339;DHT22;9295;44.484;11.240;2024-01-25T07:15:57;3.70;99.90
18339;DHT22;9295;44.484;11.240;2024-01-25T07:18:25;3.80;99.90
18339;DHT22;9295;44.484;11.240;2024-01-25T07:20:54;3.90;99.90
18339;DHT22;9295;44.484;11.240;2024-01-25T07:23:22;4.10;99.90
18339;DHT22;9295;44.484;11.240;2024-01-25T07:25:51;4.70;99.90
18339;DHT22;9295;44.484;11.240;2024-01-25T07:28:20;5.40;99.90
18339;DHT22;9295;44.484;11.240;2024-01-25T07:30:49;6.40;99.90
18339;DHT22;9295;44.484;11.240;2024-01-25T07:33:19;7.30;99.90
18339;DHT22;9295;44.484;11.240;2024-01-25T07:35:48;8.10;99.90
18339;DHT22;9295;44.484;11.240;2024-01-25T07:38:17;8.80;99.90
18339;DHT22;9295;44.484;11.240;2024-01-25T07:40:46;9.40;99.90
18339;DHT22;9295;44.484;11.240;2024-01-25T07:43:14;9.90;99.90
18339;DHT22;9295;44.484;11.240;2024-01-25T07:45:43;10.50;99.90
18339;DHT22;9295;44.484;11.240;2024-01-25T07:48:12;11.00;99.90
18339;DHT22;9295;44.484;11.240;2024-01-25T07:50:44;11.40;99.90
18339;DHT22;9295;44.484;11.240;2024-01-25T07:53:12;12.00;99.90
18339;DHT22;9295;44.484;11.240;2024-01-25T07:55:43;12.40;99.90
18339;DHT22;9295;44.484;11.240;2024-01-25T07:58:14;12.70;99.90
18339;DHT22;9295;44.484;11.240;2024-01-25T08:00:43;13.00;99.90
18339;DHT22;9295;44.484;11.240;2024-01-25T08:03:13;13.30;99.90
18339;DHT22;9295;44.484;11.240;2024-01-25T08:05:42;13.50;99.90
18339;DHT22;9295;44.484;11.240;2024-01-25T08:08:18;13.20;99.90
18339;DHT22;9295;44.484;11.240;2024-01-25T08:10:47;12.70;99.90
18339;DHT22;9295;44.484;11.240;2024-01-25T08:13:16;12.00;99.90
18339;DHT22;9295;44.484;11.240;2024-01-25T08:15:45;11.20;99.90
18339;DHT22;9295;44.484;11.240;2024-01-25T08:18:14;10.60;99.90
18339;DHT22;9295;44.484;11.240;2024-01-25T08:20:42;10.00;99.90
18339;DHT22;9295;44.484;11.240;2024-01-25T08:23:11;9.40;99.90
18339;DHT22;9295;44.484;11.240;2024-01-25T08:25:42;9.20;99.90
18339;DHT22;9295;44.484;11.240;2024-01-25T08:28:11;9.10;99.90
18339;DHT22;9295;44.484;11.240;2024-01-25T08:30:39;9.00;99.90
18339;DHT22;9295;44.484;11.240;2024-01-25T08:33:08;8.90;99.90
18339;DHT22;9295;44.484;11.240;2024-01-25T08:35:37;9.00;99.90
18339;DHT22;9295;44.484;11.240;2024-01-25T08:38:08;9.00;99.90
18339;DHT22;9295;44.484;11.240;2024-01-25T08:40:36;8.70;99.90
18339;DHT22;9295;44.484;11.240;2024-01-25T08:43:06;8.30;99.90
18339;DHT22;9295;44.484;11.240;2024-01-25T08:45:35;8.50;99.90
18339;DHT22;9295;44.484;11.240;2024-01-25T08:48:05;8.60;99.90
18339;DHT22;9295;44.484;11.240;2024-01-25T08:50:36;8.30;99.90
18339;DHT22;9295;44.484;11.240;2024-01-25T08:53:05;8.00;99.90
18339;DHT22;9295;44.484;11.240;2024-01-25T08:55:34;7.80;99.90
18339;DHT22;9295;44.484;11.240;2024-01-25T08:58:03;7.60;99.90
18339;DHT22;9295;44.484;11.240;2024-01-25T09:00:32;7.70;99.90
18339;DHT22;9295;44.484;11.240;2024-01-25T09:03:01;7.90;99.90
18339;DHT22;9295;44.484;11.240;2024-01-25T09:05:29;8.20;99.90
18339;DHT22;9295;44.484;11.240;2024-01-25T09:08:02;8.40;99.90
18339;DHT22;9295;44.484;11.240;2024-01-25T09:10:30;8.60;99.90
18339;DHT22;9295;44.484;11.240;2024-01-25T09:12:59;8.30;99.90
18339;DHT22;9295;44.484;11.240;2024-01-25T09:15:28;8.30;99.90
18339;DHT22;9295;44.484;11.240;2024-01-25T09:17:58;8.40;99.90
18339;DHT22;9295;44.484;11.240;2024-01-25T09:20:26;8.70;99.90
18339;DHT22;9295;44.484;11.240;2024-01-25T09:22:55;8.90;99.90
18339;DHT22;9295;44.484;11.240;2024-01-25T09:25:23;9.10;99.90
18339;DHT22;9295;44.484;11.240;2024-01-25T09:27:52;8.80;99.90
18339;DHT22;9295;44.484;11.240;2024-01-25T09:30:23;8.40;99.90
18339;DHT22;9295;44.484;11.240;2024-01-25T09:32:51;8.60;99.90
18339;DHT22;9295;44.484;11.240;2024-01-25T09:35:21;9.00;99.90
18339;DHT22;9295;44.484;11.240;2024-01-25T09:37:50;9.30;99.90
18339;DHT22;9295;44.484;11.240;2024-01-25T09:40:20;9.50;99.90
18339;DHT22;9295;44.484;11.240;2024-01-25T09:42:49;9.60;99.90
18339;DHT22;9295;44.484;11.240;2024-01-25T09:45:20;9.60;99.90
18339;DHT22;9295;44.484;11.240;2024-01-25T09:47:49;9.20;99.90
18339;DHT22;9295;44.484;11.240;2024-01-25T09:50:18;8.80;99.90
18339;DHT22;9295;44.484;11.240;2024-01-25T09:52:53;8.90;99.90
18339;DHT22;9295;44.484;11.240;2024-01-25T09:55:24;9.30;99.90
18339;DHT22;9295;44.484;11.240;2024-01-25T09:57:54;9.40;99.90
18339;DHT22;9295;44.484;11.240;2024-01-25T10:00:24;9.40;99.90
18339;DHT22;9295;44.484;11.240;2024-01-25T10:02:55;9.30;99.90
18339;DHT22;9295;44.484;11.240;2024-01-25T10:05:23;9.40;99.90
18339;DHT22;9295;44.484;11.240;2024-01-25T10:07:54;9.00;99.90
18339;DHT22;9295;44.484;11.240;2024-01-25T10:10:32;8.90;99.90
18339;DHT22;9295;44.484;11.240;2024-01-25T10:13:01;9.10;99.90
18339;DHT22;9295;44.484;11.240;2024-01-25T10:15:29;9.20;99.90
18339;DHT22;9295;44.484;11.240;2024-01-25T10:17:58;9.40;99.90
18339;DHT22;9295;44.484;11.240;2024-01-25T10:20:47;9.40;99.90
18339;DHT22;9295;44.484;11.240;2024-01-25T10:23:17;9.10;99.90
18339;DHT22;9295;44.484;11.240;2024-01-25T10:25:46;8.80;99.90
18339;DHT22;9295;44.484;11.240;2024-01-25T10:28:15;8.50;99.90
18339;DHT22;9295;44.484;11.240;2024-01-25T10:30:44;8.30;99.90
18339;DHT22;9295;44.484;11.240;2024-01-25T10:33:13;8.10;99.90
18339;DHT22;9295;44.484;11.240;2024-01-25T10:35:42;8.20;99.90
18339;DHT22;9295;44.484;11.240;2024-01-25T10:38:13;8.30;99.90
18339;DHT22;9295;44.484;11.240;2024-01-25T10:40:46;8.30;99.90
18339;DHT22;9295;44.484;11.240;2024-01-25T10:43:16;8.10;99.90
18339;DHT22;9295;44.484;11.240;2024-01-25T10:45:45;8.10;99.90
18339;DHT22;9295;44.484;11.240;2024-01-25T10:48:14;8.50;99.90
18339;DHT22;9295;44.484;11.240;2024-01-25T10:50:45;9.00;99.90
18339;DHT22;9295;44.484;11.240;2024-01-25T10:53:15;9.30;99.90
18339;DHT22;9295;44.484;11.240;2024-01-25T10:55:46;9.00;99.90
18339;DHT22;9295;44.484;11.240;2024-01-25T10:58:16;8.90;99.90
18339;DHT22;9295;44.484;11.240;2024-01-25T11:00:51;8.80;99.90
18339;DHT22;9295;44.484;11.240;2024-01-25T11:03:20;9.00;99.90
18339;DHT22;9295;44.484;11.240;2024-01-25T11:05:55;9.40;99.90
18339;DHT22;9295;44.484;11.240;2024-01-25T11:08:24;9.60;99.90
18339;DHT22;9295;44.484;11.240;2024-01-25T11:10:55;9.20;99.90
18339;DHT22;9295;44.484;11.240;2024-01-25T11:13:26;9.10;99.90
18339;DHT22;9295;44.484;11.240;2024-01-25T11:15:57;9.40;99.90
18339;DHT22;9295;44.484;11.240;2024-01-25T11:18:27;9.70;99.90
18339;DHT22;9295;44.484;11.240;2024-01-25T11:21:00;10.00;99.90
18339;DHT22;9295;44.484;11.240;2024-01-25T11:23:31;10.20;99.90
18339;DHT22;9295;44.484;11.240;2024-01-25T11:26:02;10.00;99.90
18339;DHT22;9295;44.484;11.240;2024-01-25T11:28:31;9.80;99.90
18339;DHT22;9295;44.484;11.240;2024-01-25T11:30:59;9.80;99.90
18339;DHT22;9295;44.484;11.240;2024-01-25T11:33:28;10.10;99.90
18339;DHT22;9295;44.484;11.240;2024-01-25T11:35:57;10.50;99.90
18339;DHT22;9295;44.484;11.240;2024-01-25T11:38:25;10.70;99.90
18339;DHT22;9295;44.484;11.240;2024-01-25T11:40:57;10.70;99.90
18339;DHT22;9295;44.484;11.240;2024-01-25T11:43:27;10.40;99.90
18339;DHT22;9295;44.484;11.240;2024-01-25T11:45:55;10.40;99.90
18339;DHT22;9295;44.484;11.240;2024-01-25T11:48:26;10.60;99.90
18339;DHT22;9295;44.484;11.240;2024-01-25T11:50:55;11.00;99.90
18339;DHT22;9295;44.484;11.240;2024-01-25T11:53:23;11.20;99.90
18339;DHT22;9295;44.484;11.240;2024-01-25T11:55:54;11.30;99.90
18339;DHT22;9295;44.484;11.240;2024-01-25T11:58:25;11.40;99.90
18339;DHT22;9295;44.484;11.240;2024-01-25T12:00:58;11.10;99.90
18339;DHT22;9295;44.484;11.240;2024-01-25T12:03:27;10.70;99.90
18339;DHT22;9295;44.484;11.240;2024-01-25T12:05:55;10.90;99.90
18339;DHT22;9295;44.484;11.240;2024-01-25T12:08:26;11.20;99.90
18339;DHT22;9295;44.484;11.240;2024-01-25T12:11:03;11.60;99.90
18339;DHT22;9295;44.484;11.240;2024-01-25T12:13:33;11.60;99.90
18339;DHT22;9295;44.484;11.240;2024-01-25T12:16:05;11.50;99.90
18339;DHT22;9295;44.484;11.240;2024-01-25T12:18:34;11.40;99.90
18339;DHT22;9295;44.484;11.240;2024-01-25T12:21:05;11.40;99.90
18339;DHT22;9295;44.484;11.240;2024-01-25T12:23:35;11.40;99.90
18339;DHT22;9295;44.484;11.240;2024-01-25T12:26:05;11.50;99.90
18339;DHT22;9295;44.484;11.240;2024-01-25T12:28:34;11.00;99.90
18339;DHT22;9295;44.484;11.240;2024-01-25T12:31:05;10.90;99.90
18339;DHT22;9295;44.484;11.240;2024-01-25T12:33:35;11.20;99.90
18339;DHT22;9295;44.484;11.240;2024-01-25T12:36:05;11.40;99.90
18339;DHT22;9295;44.484;11.240;2024-01-25T12:38:35;11.50;99.90
18339;DHT22;9295;44.484;11.240;2024-01-25T12:41:05;11.20;99.90
18339;DHT22;9295;44.484;11.240;2024-01-25T12:43:35;10.90;99.90
18339;DHT22;9295;44.484;11.240;2024-01-25T12:46:06;11.00;99.90
18339;DHT22;9295;44.484;11.240;2024-01-25T12:48:52;11.30;99.90
18339;DHT22;9295;44.484;11.240;2024-01-25T12:51:25;11.50;99.90
18339;DHT22;9295;44.484;11.240;2024-01-25T12:53:54;11.30;99.90
18339;DHT22;9295;44.484;11.240;2024-01-25T12:56:24;11.20;99.90
18339;DHT22;9295;44.484;11.240;2024-01-25T12:58:53;11.40;99.90
18339;DHT22;9295;44.484;11.240;2024-01-25T13:01:24;11.60;99.90
18339;DHT22;9295;44.484;11.240;2024-01-25T13:03:53;11.80;99.90
18339;DHT22;9295;44.484;11.240;2024-01-25T13:06:23;11.60;99.90
18339;DHT22;9295;44.484;11.240;2024-01-25T13:08:52;11.20;99.90
18339;DHT22;9295;44.484;11.240;2024-01-25T13:11:21;11.20;99.90
18339;DHT22;9295;44.484;11.240;2024-01-25T13:13:49;11.30;99.90
18339;DHT22;9295;44.484;11.240;2024-01-25T13:16:19;11.40;99.90
18339;DHT22;9295;44.484;11.240;2024-01-25T13:18:50;11.50;99.90
18339;DHT22;9295;44.484;11.240;2024-01-25T13:21:20;11.60;99.90
18339;DHT22;9295;44.484;11.240;2024-01-25T13:23:49;11.60;99.90
18339;DHT22;9295;44.484;11.240;2024-01-25T13:26:18;11.00;99.90
18339;DHT22;9295;44.484;11.240;2024-01-25T13:28:47;10.80;99.90
18339;DHT22;9295;44.484;11.240;2024-01-25T13:31:16;10.70;99.90
18339;DHT22;9295;44.484;11.240;2024-01-25T13:33:45;10.90;99.90
18339;DHT22;9295;44.484;11.240;2024-01-25T13:36:17;11.10;99.90
18339;DHT22;9295;44.484;11.240;2024-01-25T13:38:47;11.20;99.90
18339;DHT22;9295;44.484;11.240;2024-01-25T13:41:16;11.30;99.90
18339;DHT22;9295;44.484;11.240;2024-01-25T13:43:44;11.00;99.90
18339;DHT22;9295;44.484;11.240;2024-01-25T13:46:13;10.60;99.90
18339;DHT22;9295;44.484;11.240;2024-01-25T13:48:45;10.50;99.90
18339;DHT22;9295;44.484;11.240;2024-01-25T13:51:16;10.70;99.90
18339;DHT22;9295;44.484;11.240;2024-01-25T13:53:46;10.80;99.90
18339;DHT22;9295;44.484;11.240;2024-01-25T13:56:17;10.80;99.90
18339;DHT22;9295;44.484;11.240;2024-01-25T13:58:46;10.60;99.90
18339;DHT22;9295;44.484;11.240;2024-01-25T14:01:15;10.50;99.90
18339;DHT22;9295;44.484;11.240;2024-01-25T14:03:43;10.40;99.90
18339;DHT22;9295;44.484;11.240;2024-01-25T14:06:12;10.50;99.90
18339;DHT22;9295;44.484;11.240;2024-01-25T14:08:43;10.60;99.90
18339;DHT22;9295;44.484;11.240;2024-01-25T14:11:11;10.60;99.90
18339;DHT22;9295;44.484;11.240;2024-01-25T14:13:40;10.60;99.90
18339;DHT22;9295;44.484;11.240;2024-01-25T14:16:09;10.40;99.90
18339;DHT22;9295;44.484;11.240;2024-01-25T14:18:44;10.00;99.90
18339;DHT22;9295;44.484;11.240;2024-01-25T14:21:13;10.00;99.90
18339;DHT22;9295;44.484;11.240;2024-01-25T14:23:47;10.00;99.90
18339;DHT22;9295;44.484;11.240;2024-01-25T14:26:16;10.10;99.90
18339;DHT22;9295;44.484;11.240;2024-01-25T14:28:44;10.20;99.90
18339;DHT22;9295;44.484;11.240;2024-01-25T14:31:13;10.00;99.90
18339;DHT22;9295;44.484;11.240;2024-01-25T14:33:42;9.70;99.90
18339;DHT22;9295;44.484;11.240;2024-01-25T14:36:12;9.80;99.90
18339;DHT22;9295;44.484;11.240;2024-01-25T14:38:42;9.80;99.90
18339;DHT22;9295;44.484;11.240;2024-01-25T14:41:12;9.90;99.90
18339;DHT22;9295;44.484;11.240;2024-01-25T14:43:40;9.90;99.90
18339;DHT22;9295;44.484;11.240;2024-01-25T14:46:10;9.90;99.90
18339;DHT22;9295;44.484;11.240;2024-01-25T14:48:39;10.00;99.90
18339;DHT22;9295;44.484;11.240;2024-01-25T14:51:08;9.90;99.90
18339;DHT22;9295;44.484;11.240;2024-01-25T14:53:36;9.80;99.90
18339;DHT22;9295;44.484;11.240;2024-01-25T14:56:05;9.50;99.90
18339;DHT22;9295;44.484;11.240;2024-01-25T14:58:37;9.20;99.90
18339;DHT22;9295;44.484;11.240;2024-01-25T15:01:05;9.10;99.90
18339;DHT22;9295;44.484;11.240;2024-01-25T15:03:34;9.20;99.90
18339;DHT22;9295;44.484;11.240;2024-01-25T15:06:03;9.40;99.90
18339;DHT22;9295;44.484;11.240;2024-01-25T15:08:32;9.50;99.90
18339;DHT22;9295;44.484;11.240;2024-01-25T15:11:00;9.00;99.90
18339;DHT22;9295;44.484;11.240;2024-01-25T15:13:29;8.70;99.90
18339;DHT22;9295;44.484;11.240;2024-01-25T15:16:00;8.70;99.90
18339;DHT22;9295;44.484;11.240;2024-01-25T15:18:28;8.90;99.90
18339;DHT22;9295;44.484;11.240;2024-01-25T15:20:58;9.00;99.90
18339;DHT22;9295;44.484;11.240;2024-01-25T15:23:26;8.90;99.90
18339;DHT22;9295;44.484;11.240;2024-01-25T15:25:57;8.50;99.90
18339;DHT22;9295;44.484;11.240;2024-01-25T15:28:25;8.40;99.90
18339;DHT22;9295;44.484;11.240;2024-01-25T15:30:54;8.40;99.90
18339;DHT22;9295;44.484;11.240;2024-01-25T15:33:24;8.50;99.90
18339;DHT22;9295;44.484;11.240;2024-01-25T15:35:53;8.60;99.90
18339;DHT22;9295;44.484;11.240;2024-01-25T15:38:22;8.60;99.90
18339;DHT22;9295;44.484;11.240;2024-01-25T15:40:51;8.60;99.90
18339;DHT22;9295;44.484;11.240;2024-01-25T15:43:20;8.20;99.90
18339;DHT22;9295;44.484;11.240;2024-01-25T15:45:49;8.00;99.90
18339;DHT22;9295;44.484;11.240;2024-01-25T15:48:18;7.80;99.90
18339;DHT22;9295;44.484;11.240;2024-01-25T15:50:48;7.90;99.90
18339;DHT22;9295;44.484;11.240;2024-01-25T15:53:17;8.00;99.90
18339;DHT22;9295;44.484;11.240;2024-01-25T15:55:46;8.00;99.90